sensor_id;sensor_type;location;lat;lon;timestamp;P1;durP1;ratioP1;P2;durP2;ratioP2
13171;SDS011;6651;53.200;10.432;2022-11-15T00:01:20;30.02;;;25.33;;
13171;SDS011;6651;53.200;10.432;2022-11-15T00:03:46;27.60;;;24.63;;
13171;SDS011;6651;53.200;10.432;2022-11-15T00:06:12;28.25;;;24.08;;
13171;SDS011;6651;53.200;10.432;2022-11-15T00:08:38;28.27;;;24.23;;
13171;SDS011;6651;53.200;10.432;2022-11-15T00:11:04;28.63;;;24.55;;
13171;SDS011;6651;53.200;10.432;2022-11-15T00:13:30;28.42;;;24.50;;
13171;SDS011;6651;53.200;10.432;2022-11-15T00:15:57;28.05;;;24.98;;
13171;SDS011;6651;53.200;10.432;2022-11-15T00:18:23;27.92;;;23.45;;
13171;SDS011;6651;53.200;10.432;2022-11-15T00:20:49;27.33;;;23.05;;
13171;SDS011;6651;53.200;10.432;2022-11-15T00:23:15;25.85;;;22.73;;
13171;SDS011;6651;53.200;10.432;2022-11-15T00:25:41;26.77;;;23.73;;
13171;SDS011;6651;53.200;10.432;2022-11-15T00:28:07;25.38;;;22.63;;
13171;SDS011;6651;53.200;10.432;2022-11-15T00:30:33;26.10;;;23.40;;
13171;SDS011;6651;53.200;10.432;2022-11-15T00:33:06;24.67;;;21.95;;
13171;SDS011;6651;53.200;10.432;2022-11-15T00:35:32;26.15;;;22.83;;
13171;SDS011;6651;53.200;10.432;2022-11-15T00:37:59;27.05;;;22.83;;
13171;SDS011;6651;53.200;10.432;2022-11-15T00:40:25;27.20;;;22.63;;
13171;SDS011;6651;53.200;10.432;2022-11-15T00:42:51;23.92;;;20.75;;
13171;SDS011;6651;53.200;10.432;2022-11-15T00:45:17;25.15;;;22.42;;
13171;SDS011;6651;53.200;10.432;2022-11-15T00:47:46;26.25;;;21.95;;
13171;SDS011;6651;53.200;10.432;2022-11-15T00:50:12;24.17;;;21.17;;
13171;SDS011;6651;53.200;10.432;2022-11-15T00:52:38;25.08;;;22.38;;
13171;SDS011;6651;53.200;10.432;2022-11-15T00:55:04;25.60;;;22.55;;
13171;SDS011;6651;53.200;10.432;2022-11-15T00:57:31;23.98;;;21.02;;
13171;SDS011;6651;53.200;10.432;2022-11-15T01:02:26;24.50;;;21.77;;
13171;SDS011;6651;53.200;10.432;2022-11-15T01:04:53;25.42;;;22.02;;
13171;SDS011;6651;53.200;10.432;2022-11-15T01:07:19;24.60;;;21.50;;
13171;SDS011;6651;53.200;10.432;2022-11-15T01:09:45;25.35;;;22.48;;
13171;SDS011;6651;53.200;10.432;2022-11-15T01:12:11;24.83;;;21.73;;
13171;SDS011;6651;53.200;10.432;2022-11-15T01:14:37;22.98;;;20.50;;
13171;SDS011;6651;53.200;10.432;2022-11-15T01:17:03;26.10;;;21.88;;
13171;SDS011;6651;53.200;10.432;2022-11-15T01:19:29;23.15;;;20.63;;
13171;SDS011;6651;53.200;10.432;2022-11-15T01:21:55;23.67;;;21.17;;
13171;SDS011;6651;53.200;10.432;2022-11-15T01:24:21;23.90;;;21.33;;
13171;SDS011;6651;53.200;10.432;2022-11-15T01:26:47;26.15;;;21.17;;
13171;SDS011;6651;53.200;10.432;2022-11-15T01:29:13;24.25;;;21.65;;
13171;SDS011;6651;53.200;10.432;2022-11-15T01:31:39;23.10;;;20.10;;
13171;SDS011;6651;53.200;10.432;2022-11-15T01:34:05;25.10;;;21.38;;
13171;SDS011;6651;53.200;10.432;2022-11-15T01:36:31;22.13;;;19.17;;
13171;SDS011;6651;53.200;10.432;2022-11-15T01:38:57;23.17;;;20.42;;
13171;SDS011;6651;53.200;10.432;2022-11-15T01:41:28;24.00;;;20.73;;
13171;SDS011;6651;53.200;10.432;2022-11-15T01:43:55;21.50;;;18.70;;
13171;SDS011;6651;53.200;10.432;2022-11-15T01:48:48;24.83;;;20.98;;
13171;SDS011;6651;53.200;10.432;2022-11-15T01:51:16;25.65;;;20.23;;
13171;SDS011;6651;53.200;10.432;2022-11-15T01:53:44;23.83;;;19.90;;
13171;SDS011;6651;53.200;10.432;2022-11-15T01:56:11;24.00;;;19.75;;
13171;SDS011;6651;53.200;10.432;2022-11-15T01:58:39;23.00;;;19.27;;
13171;SDS011;6651;53.200;10.432;2022-11-15T02:01:06;23.20;;;18.65;;
13171;SDS011;6651;53.200;10.432;2022-11-15T02:03:43;24.25;;;19.90;;
13171;SDS011;6651;53.200;10.432;2022-11-15T02:06:11;23.30;;;19.05;;
13171;SDS011;6651;53.200;10.432;2022-11-15T02:08:37;24.35;;;19.98;;
13171;SDS011;6651;53.200;10.432;2022-11-15T02:11:04;22.50;;;19.90;;
13171;SDS011;6651;53.200;10.432;2022-11-15T02:13:30;23.80;;;20.42;;
13171;SDS011;6651;53.200;10.432;2022-11-15T02:18:32;22.73;;;19.80;;
13171;SDS011;6651;53.200;10.432;2022-11-15T02:21:09;21.20;;;18.90;;
13171;SDS011;6651;53.200;10.432;2022-11-15T02:29:01;21.02;;;18.17;;
13171;SDS011;6651;53.200;10.432;2022-11-15T02:31:35;21.45;;;18.50;;
13171;SDS011;6651;53.200;10.432;2022-11-15T02:34:08;22.05;;;19.02;;
13171;SDS011;6651;53.200;10.432;2022-11-15T02:36:45;21.98;;;18.85;;
13171;SDS011;6651;53.200;10.432;2022-11-15T02:39:16;21.58;;;19.13;;
13171;SDS011;6651;53.200;10.432;2022-11-15T02:41:52;20.15;;;17.75;;
13171;SDS011;6651;53.200;10.432;2022-11-15T02:46:46;22.10;;;19.17;;
13171;SDS011;6651;53.200;10.432;2022-11-15T02:49:33;20.52;;;18.23;;
13171;SDS011;6651;53.200;10.432;2022-11-15T02:52:00;22.50;;;19.60;;
13171;SDS011;6651;53.200;10.432;2022-11-15T02:54:28;23.48;;;19.35;;
13171;SDS011;6651;53.200;10.432;2022-11-15T02:56:56;23.33;;;19.17;;
13171;SDS011;6651;53.200;10.432;2022-11-15T03:04:41;23.63;;;19.58;;
13171;SDS011;6651;53.200;10.432;2022-11-15T03:07:21;24.38;;;19.98;;
13171;SDS011;6651;53.200;10.432;2022-11-15T03:10:32;22.27;;;19.52;;
13171;SDS011;6651;53.200;10.432;2022-11-15T03:12:46;23.67;;;19.38;;
13171;SDS011;6651;53.200;10.432;2022-11-15T03:15:19;24.23;;;19.52;;
13171;SDS011;6651;53.200;10.432;2022-11-15T03:20:46;20.88;;;18.58;;
13171;SDS011;6651;53.200;10.432;2022-11-15T03:23:12;20.20;;;17.92;;
13171;SDS011;6651;53.200;10.432;2022-11-15T03:25:43;21.70;;;17.92;;
13171;SDS011;6651;53.200;10.432;2022-11-15T03:28:11;20.80;;;17.35;;
13171;SDS011;6651;53.200;10.432;2022-11-15T03:30:38;19.98;;;17.83;;
13171;SDS011;6651;53.200;10.432;2022-11-15T03:33:06;22.33;;;18.65;;
13171;SDS011;6651;53.200;10.432;2022-11-15T03:35:34;22.35;;;17.83;;
13171;SDS011;6651;53.200;10.432;2022-11-15T03:40:40;22.80;;;18.48;;
13171;SDS011;6651;53.200;10.432;2022-11-15T03:43:11;20.35;;;18.15;;
13171;SDS011;6651;53.200;10.432;2022-11-15T03:46:04;20.58;;;17.95;;
13171;SDS011;6651;53.200;10.432;2022-11-15T03:48:28;21.55;;;18.83;;
13171;SDS011;6651;53.200;10.432;2022-11-15T03:50:56;23.15;;;18.48;;
13171;SDS011;6651;53.200;10.432;2022-11-15T03:53:22;23.48;;;19.05;;
13171;SDS011;6651;53.200;10.432;2022-11-15T03:55:48;20.88;;;18.23;;
13171;SDS011;6651;53.200;10.432;2022-11-15T03:58:14;21.90;;;18.63;;
13171;SDS011;6651;53.200;10.432;2022-11-15T04:00:40;22.55;;;18.98;;
13171;SDS011;6651;53.200;10.432;2022-11-15T04:03:06;23.70;;;18.45;;
13171;SDS011;6651;53.200;10.432;2022-11-15T04:05:33;22.67;;;18.55;;
13171;SDS011;6651;53.200;10.432;2022-11-15T04:07:59;21.83;;;18.55;;
13171;SDS011;6651;53.200;10.432;2022-11-15T04:10:25;23.23;;;18.90;;
13171;SDS011;6651;53.200;10.432;2022-11-15T04:12:51;21.00;;;18.63;;
13171;SDS011;6651;53.200;10.432;2022-11-15T04:15:17;20.13;;;17.90;;
13171;SDS011;6651;53.200;10.432;2022-11-15T04:20:20;21.90;;;18.50;;
13171;SDS011;6651;53.200;10.432;2022-11-15T04:23:06;20.55;;;17.67;;
13171;SDS011;6651;53.200;10.432;2022-11-15T04:25:51;20.98;;;17.55;;
13171;SDS011;6651;53.200;10.432;2022-11-15T04:28:18;18.83;;;16.73;;
13171;SDS011;6651;53.200;10.432;2022-11-15T04:30:44;22.15;;;18.42;;
13171;SDS011;6651;53.200;10.432;2022-11-15T04:33:10;20.42;;;17.30;;
13171;SDS011;6651;53.200;10.432;2022-11-15T04:35:36;21.65;;;16.75;;
13171;SDS011;6651;53.200;10.432;2022-11-15T04:38:03;20.60;;;16.75;;
13171;SDS011;6651;53.200;10.432;2022-11-15T04:40:29;21.40;;;17.88;;
13171;SDS011;6651;53.200;10.432;2022-11-15T04:42:55;19.15;;;17.13;;
13171;SDS011;6651;53.200;10.432;2022-11-15T04:45:22;18.50;;;16.45;;
13171;SDS011;6651;53.200;10.432;2022-11-15T04:47:48;18.83;;;16.80;;
13171;SDS011;6651;53.200;10.432;2022-11-15T04:50:14;21.05;;;17.92;;
13171;SDS011;6651;53.200;10.432;2022-11-15T04:52:41;20.35;;;16.33;;
13171;SDS011;6651;53.200;10.432;2022-11-15T04:55:08;22.13;;;17.38;;
13171;SDS011;6651;53.200;10.432;2022-11-15T04:57:34;20.40;;;17.13;;
13171;SDS011;6651;53.200;10.432;2022-11-15T05:00:00;19.42;;;17.23;;
13171;SDS011;6651;53.200;10.432;2022-11-15T05:02:27;19.45;;;17.20;;
13171;SDS011;6651;53.200;10.432;2022-11-15T05:05:13;21.55;;;16.98;;
13171;SDS011;6651;53.200;10.432;2022-11-15T05:07:39;19.27;;;17.23;;
13171;SDS011;6651;53.200;10.432;2022-11-15T05:10:05;20.38;;;17.30;;
13171;SDS011;6651;53.200;10.432;2022-11-15T05:12:31;20.52;;;17.70;;
13171;SDS011;6651;53.200;10.432;2022-11-15T05:14:57;21.75;;;17.73;;
13171;SDS011;6651;53.200;10.432;2022-11-15T05:17:23;19.95;;;17.77;;
13171;SDS011;6651;53.200;10.432;2022-11-15T05:19:49;21.38;;;17.65;;
13171;SDS011;6651;53.200;10.432;2022-11-15T05:22:17;20.70;;;17.35;;
13171;SDS011;6651;53.200;10.432;2022-11-15T05:24:43;21.20;;;17.63;;
13171;SDS011;6651;53.200;10.432;2022-11-15T05:27:09;19.15;;;16.65;;
13171;SDS011;6651;53.200;10.432;2022-11-15T05:29:35;21.02;;;17.77;;
13171;SDS011;6651;53.200;10.432;2022-11-15T05:32:02;23.65;;;18.92;;
13171;SDS011;6651;53.200;10.432;2022-11-15T05:34:28;21.05;;;18.25;;
13171;SDS011;6651;53.200;10.432;2022-11-15T05:36:54;23.48;;;18.13;;
13171;SDS011;6651;53.200;10.432;2022-11-15T05:39:20;20.95;;;17.63;;
13171;SDS011;6651;53.200;10.432;2022-11-15T05:41:48;23.00;;;18.80;;
13171;SDS011;6651;53.200;10.432;2022-11-15T05:44:16;22.38;;;18.50;;
13171;SDS011;6651;53.200;10.432;2022-11-15T05:46:43;22.23;;;19.38;;
13171;SDS011;6651;53.200;10.432;2022-11-15T05:49:10;21.35;;;18.35;;
13171;SDS011;6651;53.200;10.432;2022-11-15T05:51:38;19.88;;;17.73;;
13171;SDS011;6651;53.200;10.432;2022-11-15T05:54:04;20.23;;;17.77;;
13171;SDS011;6651;53.200;10.432;2022-11-15T05:56:30;22.67;;;18.30;;
13171;SDS011;6651;53.200;10.432;2022-11-15T05:58:57;23.20;;;19.17;;
13171;SDS011;6651;53.200;10.432;2022-11-15T06:01:24;21.17;;;17.95;;
13171;SDS011;6651;53.200;10.432;2022-11-15T06:03:51;21.35;;;18.05;;
13171;SDS011;6651;53.200;10.432;2022-11-15T06:06:17;21.60;;;18.48;;
13171;SDS011;6651;53.200;10.432;2022-11-15T06:08:43;22.33;;;18.77;;
13171;SDS011;6651;53.200;10.432;2022-11-15T06:11:09;23.40;;;19.17;;
13171;SDS011;6651;53.200;10.432;2022-11-15T06:13:35;20.90;;;18.30;;
13171;SDS011;6651;53.200;10.432;2022-11-15T06:16:01;22.00;;;19.27;;
13171;SDS011;6651;53.200;10.432;2022-11-15T06:18:27;21.20;;;18.90;;
13171;SDS011;6651;53.200;10.432;2022-11-15T06:20:53;21.90;;;18.45;;
13171;SDS011;6651;53.200;10.432;2022-11-15T06:23:19;22.27;;;18.73;;
13171;SDS011;6651;53.200;10.432;2022-11-15T06:25:45;23.00;;;18.95;;
13171;SDS011;6651;53.200;10.432;2022-11-15T06:28:11;23.33;;;19.50;;
13171;SDS011;6651;53.200;10.432;2022-11-15T06:30:37;23.08;;;19.25;;
13171;SDS011;6651;53.200;10.432;2022-11-15T06:33:04;23.75;;;19.75;;
13171;SDS011;6651;53.200;10.432;2022-11-15T06:35:32;23.65;;;18.95;;
13171;SDS011;6651;53.200;10.432;2022-11-15T06:38:05;22.95;;;19.08;;
13171;SDS011;6651;53.200;10.432;2022-11-15T06:40:33;21.98;;;19.60;;
13171;SDS011;6651;53.200;10.432;2022-11-15T06:42:59;24.42;;;20.23;;
13171;SDS011;6651;53.200;10.432;2022-11-15T06:45:25;22.80;;;19.67;;
13171;SDS011;6651;53.200;10.432;2022-11-15T06:47:51;24.20;;;19.63;;
13171;SDS011;6651;53.200;10.432;2022-11-15T06:50:17;24.85;;;19.67;;
13171;SDS011;6651;53.200;10.432;2022-11-15T06:52:43;24.00;;;20.75;;
13171;SDS011;6651;53.200;10.432;2022-11-15T06:55:09;25.45;;;20.50;;
13171;SDS011;6651;53.200;10.432;2022-11-15T06:57:36;23.73;;;20.48;;
13171;SDS011;6651;53.200;10.432;2022-11-15T07:00:05;24.95;;;19.02;;
13171;SDS011;6651;53.200;10.432;2022-11-15T07:02:31;23.10;;;19.58;;
13171;SDS011;6651;53.200;10.432;2022-11-15T07:04:57;22.55;;;19.30;;
13171;SDS011;6651;53.200;10.432;2022-11-15T07:07:23;21.30;;;19.08;;
13171;SDS011;6651;53.200;10.432;2022-11-15T07:09:49;24.50;;;20.40;;
13171;SDS011;6651;53.200;10.432;2022-11-15T07:12:15;23.65;;;20.00;;
13171;SDS011;6651;53.200;10.432;2022-11-15T07:14:41;23.15;;;19.98;;
13171;SDS011;6651;53.200;10.432;2022-11-15T07:17:07;23.73;;;19.92;;
13171;SDS011;6651;53.200;10.432;2022-11-15T07:19:33;22.88;;;19.40;;
13171;SDS011;6651;53.200;10.432;2022-11-15T07:21:59;21.75;;;19.17;;
13171;SDS011;6651;53.200;10.432;2022-11-15T07:24:25;22.13;;;19.67;;
13171;SDS011;6651;53.200;10.432;2022-11-15T07:26:51;23.95;;;18.92;;
13171;SDS011;6651;53.200;10.432;2022-11-15T07:29:17;25.58;;;20.20;;
13171;SDS011;6651;53.200;10.432;2022-11-15T07:31:43;23.55;;;19.90;;
13171;SDS011;6651;53.200;10.432;2022-11-15T07:34:09;22.17;;;19.08;;
13171;SDS011;6651;53.200;10.432;2022-11-15T07:36:35;23.27;;;19.98;;
13171;SDS011;6651;53.200;10.432;2022-11-15T07:39:01;20.65;;;17.85;;
13171;SDS011;6651;53.200;10.432;2022-11-15T07:41:28;20.33;;;17.55;;
13171;SDS011;6651;53.200;10.432;2022-11-15T07:43:54;22.17;;;18.63;;
13171;SDS011;6651;53.200;10.432;2022-11-15T07:46:20;19.98;;;17.88;;
13171;SDS011;6651;53.200;10.432;2022-11-15T07:48:46;22.90;;;18.58;;
13171;SDS011;6651;53.200;10.432;2022-11-15T07:51:13;20.13;;;17.85;;
13171;SDS011;6651;53.200;10.432;2022-11-15T07:53:39;20.10;;;17.90;;
13171;SDS011;6651;53.200;10.432;2022-11-15T07:56:06;19.42;;;17.33;;
13171;SDS011;6651;53.200;10.432;2022-11-15T07:58:32;22.25;;;17.85;;
13171;SDS011;6651;53.200;10.432;2022-11-15T08:01:01;18.98;;;16.95;;
13171;SDS011;6651;53.200;10.432;2022-11-15T08:03:27;19.55;;;17.40;;
13171;SDS011;6651;53.200;10.432;2022-11-15T08:05:53;20.90;;;16.83;;
13171;SDS011;6651;53.200;10.432;2022-11-15T08:08:19;17.67;;;15.85;;
13171;SDS011;6651;53.200;10.432;2022-11-15T08:10:45;17.48;;;15.48;;
13171;SDS011;6651;53.200;10.432;2022-11-15T08:13:12;20.65;;;16.23;;
13171;SDS011;6651;53.200;10.432;2022-11-15T08:15:38;17.48;;;15.55;;
13171;SDS011;6651;53.200;10.432;2022-11-15T08:18:09;16.55;;;14.85;;
13171;SDS011;6651;53.200;10.432;2022-11-15T08:20:35;16.23;;;14.38;;
13171;SDS011;6651;53.200;10.432;2022-11-15T08:23:02;16.75;;;14.93;;
13171;SDS011;6651;53.200;10.432;2022-11-15T08:25:29;17.10;;;15.30;;
13171;SDS011;6651;53.200;10.432;2022-11-15T08:27:56;17.42;;;15.40;;
13171;SDS011;6651;53.200;10.432;2022-11-15T08:30:23;16.73;;;14.98;;
13171;SDS011;6651;53.200;10.432;2022-11-15T08:32:49;16.95;;;14.65;;
13171;SDS011;6651;53.200;10.432;2022-11-15T08:35:16;16.30;;;14.02;;
13171;SDS011;6651;53.200;10.432;2022-11-15T08:37:42;15.73;;;14.07;;
13171;SDS011;6651;53.200;10.432;2022-11-15T08:40:08;15.10;;;13.23;;
13171;SDS011;6651;53.200;10.432;2022-11-15T08:42:35;14.85;;;13.20;;
13171;SDS011;6651;53.200;10.432;2022-11-15T08:45:01;15.85;;;13.68;;
13171;SDS011;6651;53.200;10.432;2022-11-15T08:47:27;15.35;;;13.18;;
13171;SDS011;6651;53.200;10.432;2022-11-15T08:49:53;16.67;;;13.02;;
13171;SDS011;6651;53.200;10.432;2022-11-15T08:52:19;15.07;;;13.48;;
13171;SDS011;6651;53.200;10.432;2022-11-15T08:54:45;16.27;;;14.00;;
13171;SDS011;6651;53.200;10.432;2022-11-15T08:57:11;15.20;;;13.32;;
13171;SDS011;6651;53.200;10.432;2022-11-15T08:59:37;15.45;;;13.85;;
13171;SDS011;6651;53.200;10.432;2022-11-15T09:02:03;15.35;;;13.35;;
13171;SDS011;6651;53.200;10.432;2022-11-15T09:04:30;14.98;;;12.88;;
13171;SDS011;6651;53.200;10.432;2022-11-15T09:06:56;18.67;;;14.00;;
13171;SDS011;6651;53.200;10.432;2022-11-15T09:09:22;15.93;;;14.23;;
13171;SDS011;6651;53.200;10.432;2022-11-15T09:11:48;17.38;;;14.25;;
13171;SDS011;6651;53.200;10.432;2022-11-15T09:14:15;18.40;;;14.80;;
13171;SDS011;6651;53.200;10.432;2022-11-15T09:16:41;17.95;;;14.48;;
13171;SDS011;6651;53.200;10.432;2022-11-15T09:19:07;16.10;;;14.38;;
13171;SDS011;6651;53.200;10.432;2022-11-15T09:21:34;16.13;;;14.43;;
13171;SDS011;6651;53.200;10.432;2022-11-15T09:24:00;15.80;;;14.20;;
13171;SDS011;6651;53.200;10.432;2022-11-15T09:26:26;15.40;;;13.90;;
13171;SDS011;6651;53.200;10.432;2022-11-15T09:28:52;15.63;;;13.25;;
13171;SDS011;6651;53.200;10.432;2022-11-15T09:31:18;14.00;;;12.50;;
13171;SDS011;6651;53.200;10.432;2022-11-15T09:33:45;14.23;;;12.73;;
13171;SDS011;6651;53.200;10.432;2022-11-15T09:36:11;15.93;;;13.02;;
13171;SDS011;6651;53.200;10.432;2022-11-15T09:38:37;14.38;;;12.38;;
13171;SDS011;6651;53.200;10.432;2022-11-15T09:48:50;12.68;;;11.38;;
13171;SDS011;6651;53.200;10.432;2022-11-15T09:51:25;12.13;;;10.63;;
13171;SDS011;6651;53.200;10.432;2022-11-15T09:56:29;11.68;;;10.40;;
13171;SDS011;6651;53.200;10.432;2022-11-15T10:01:32;12.00;;;9.88;;
13171;SDS011;6651;53.200;10.432;2022-11-15T10:03:59;11.07;;;9.88;;
13171;SDS011;6651;53.200;10.432;2022-11-15T10:06:26;11.73;;;10.00;;
13171;SDS011;6651;53.200;10.432;2022-11-15T10:09:04;11.35;;;9.45;;
13171;SDS011;6651;53.200;10.432;2022-11-15T10:11:32;12.85;;;9.25;;
13171;SDS011;6651;53.200;10.432;2022-11-15T10:14:02;10.82;;;8.98;;
13171;SDS011;6651;53.200;10.432;2022-11-15T10:21:46;12.18;;;9.35;;
13171;SDS011;6651;53.200;10.432;2022-11-15T10:24:18;11.70;;;9.43;;
13171;SDS011;6651;53.200;10.432;2022-11-15T10:26:48;11.52;;;9.45;;
13171;SDS011;6651;53.200;10.432;2022-11-15T10:29:18;11.18;;;9.20;;
13171;SDS011;6651;53.200;10.432;2022-11-15T10:31:45;11.38;;;9.23;;
13171;SDS011;6651;53.200;10.432;2022-11-15T10:34:15;11.35;;;9.27;;
13171;SDS011;6651;53.200;10.432;2022-11-15T10:36:47;10.65;;;9.32;;
13171;SDS011;6651;53.200;10.432;2022-11-15T10:39:20;10.65;;;9.13;;
13171;SDS011;6651;53.200;10.432;2022-11-15T10:41:46;10.48;;;9.00;;
13171;SDS011;6651;53.200;10.432;2022-11-15T10:44:19;13.07;;;8.88;;
13171;SDS011;6651;53.200;10.432;2022-11-15T10:47:21;10.30;;;9.07;;
13171;SDS011;6651;53.200;10.432;2022-11-15T10:49:33;10.02;;;8.27;;
13171;SDS011;6651;53.200;10.432;2022-11-15T10:52:04;9.82;;;8.60;;
13171;SDS011;6651;53.200;10.432;2022-11-15T10:54:42;9.63;;;8.48;;
13171;SDS011;6651;53.200;10.432;2022-11-15T10:57:13;8.43;;;7.28;;
13171;SDS011;6651;53.200;10.432;2022-11-15T10:59:40;10.75;;;8.40;;
13171;SDS011;6651;53.200;10.432;2022-11-15T11:02:25;9.88;;;7.82;;
13171;SDS011;6651;53.200;10.432;2022-11-15T11:04:53;9.43;;;7.35;;
13171;SDS011;6651;53.200;10.432;2022-11-15T11:07:23;10.68;;;8.63;;
13171;SDS011;6651;53.200;10.432;2022-11-15T11:09:59;10.18;;;7.90;;
13171;SDS011;6651;53.200;10.432;2022-11-15T11:12:30;10.85;;;8.30;;
13171;SDS011;6651;53.200;10.432;2022-11-15T11:14:57;9.68;;;7.97;;
13171;SDS011;6651;53.200;10.432;2022-11-15T11:22:30;9.38;;;7.90;;
13171;SDS011;6651;53.200;10.432;2022-11-15T11:27:54;9.15;;;7.25;;
13171;SDS011;6651;53.200;10.432;2022-11-15T11:33:11;9.18;;;7.60;;
13171;SDS011;6651;53.200;10.432;2022-11-15T11:35:43;8.93;;;7.60;;
13171;SDS011;6651;53.200;10.432;2022-11-15T11:38:15;8.95;;;6.97;;
13171;SDS011;6651;53.200;10.432;2022-11-15T11:46:05;7.97;;;6.90;;
13171;SDS011;6651;53.200;10.432;2022-11-15T11:48:44;7.85;;;6.72;;
13171;SDS011;6651;53.200;10.432;2022-11-15T11:51:33;9.00;;;6.68;;
13171;SDS011;6651;53.200;10.432;2022-11-15T11:53:58;9.32;;;6.82;;
13171;SDS011;6651;53.200;10.432;2022-11-15T11:56:33;7.43;;;6.63;;
13171;SDS011;6651;53.200;10.432;2022-11-15T11:59:03;10.63;;;7.10;;
13171;SDS011;6651;53.200;10.432;2022-11-15T12:01:36;8.15;;;7.30;;
13171;SDS011;6651;53.200;10.432;2022-11-15T12:04:17;8.45;;;6.60;;
13171;SDS011;6651;53.200;10.432;2022-11-15T12:09:36;8.90;;;6.45;;
13171;SDS011;6651;53.200;10.432;2022-11-15T12:14:50;8.23;;;6.65;;
13171;SDS011;6651;53.200;10.432;2022-11-15T12:17:18;8.15;;;6.60;;
13171;SDS011;6651;53.200;10.432;2022-11-15T12:19:45;8.05;;;6.20;;
13171;SDS011;6651;53.200;10.432;2022-11-15T12:22:21;8.05;;;6.25;;
13171;SDS011;6651;53.200;10.432;2022-11-15T12:25:00;8.88;;;6.50;;
13171;SDS011;6651;53.200;10.432;2022-11-15T12:29:54;7.35;;;6.18;;
13171;SDS011;6651;53.200;10.432;2022-11-15T12:34:48;8.60;;;6.90;;
13171;SDS011;6651;53.200;10.432;2022-11-15T12:45:30;8.90;;;6.22;;
13171;SDS011;6651;53.200;10.432;2022-11-15T13:01:14;9.48;;;6.63;;
13171;SDS011;6651;53.200;10.432;2022-11-15T13:06:52;10.25;;;7.18;;
13171;SDS011;6651;53.200;10.432;2022-11-15T13:11:54;8.18;;;6.65;;
13171;SDS011;6651;53.200;10.432;2022-11-15T13:17:03;9.20;;;7.03;;
13171;SDS011;6651;53.200;10.432;2022-11-15T13:19:38;7.57;;;6.57;;
13171;SDS011;6651;53.200;10.432;2022-11-15T13:22:04;9.45;;;7.63;;
13171;SDS011;6651;53.200;10.432;2022-11-15T13:24:49;9.80;;;7.22;;
13171;SDS011;6651;53.200;10.432;2022-11-15T13:27:15;8.85;;;6.70;;
13171;SDS011;6651;53.200;10.432;2022-11-15T13:29:43;9.93;;;6.75;;
13171;SDS011;6651;53.200;10.432;2022-11-15T13:32:13;7.88;;;6.38;;
13171;SDS011;6651;53.200;10.432;2022-11-15T13:34:44;10.40;;;6.50;;
13171;SDS011;6651;53.200;10.432;2022-11-15T13:39:49;8.77;;;6.88;;
13171;SDS011;6651;53.200;10.432;2022-11-15T13:42:16;8.55;;;6.95;;
13171;SDS011;6651;53.200;10.432;2022-11-15T13:44:59;9.13;;;7.22;;
13171;SDS011;6651;53.200;10.432;2022-11-15T13:47:26;7.63;;;6.47;;
13171;SDS011;6651;53.200;10.432;2022-11-15T13:49:53;8.00;;;6.70;;
13171;SDS011;6651;53.200;10.432;2022-11-15T13:52:22;7.88;;;6.50;;
13171;SDS011;6651;53.200;10.432;2022-11-15T14:00:02;7.65;;;6.43;;
13171;SDS011;6651;53.200;10.432;2022-11-15T14:02:30;8.95;;;6.63;;
13171;SDS011;6651;53.200;10.432;2022-11-15T14:04:58;8.38;;;6.15;;
13171;SDS011;6651;53.200;10.432;2022-11-15T14:07:26;8.93;;;6.82;;
13171;SDS011;6651;53.200;10.432;2022-11-15T14:09:53;7.43;;;6.63;;
13171;SDS011;6651;53.200;10.432;2022-11-15T14:14:49;8.77;;;6.53;;
13171;SDS011;6651;53.200;10.432;2022-11-15T14:17:32;8.27;;;6.35;;
13171;SDS011;6651;53.200;10.432;2022-11-15T14:19:58;8.13;;;5.93;;
13171;SDS011;6651;53.200;10.432;2022-11-15T14:22:25;7.88;;;6.53;;
13171;SDS011;6651;53.200;10.432;2022-11-15T14:25:07;7.65;;;6.45;;
13171;SDS011;6651;53.200;10.432;2022-11-15T14:27:33;8.23;;;6.70;;
13171;SDS011;6651;53.200;10.432;2022-11-15T14:30:00;9.13;;;6.95;;
13171;SDS011;6651;53.200;10.432;2022-11-15T14:32:27;8.20;;;6.05;;
13171;SDS011;6651;53.200;10.432;2022-11-15T14:34:55;9.52;;;6.22;;
13171;SDS011;6651;53.200;10.432;2022-11-15T14:37:28;7.40;;;5.60;;
13171;SDS011;6651;53.200;10.432;2022-11-15T14:39:58;6.80;;;6.03;;
13171;SDS011;6651;53.200;10.432;2022-11-15T14:42:24;7.70;;;5.90;;
13171;SDS011;6651;53.200;10.432;2022-11-15T14:44:50;9.25;;;6.22;;
13171;SDS011;6651;53.200;10.432;2022-11-15T14:47:17;8.18;;;6.20;;
13171;SDS011;6651;53.200;10.432;2022-11-15T14:49:43;8.10;;;6.78;;
13171;SDS011;6651;53.200;10.432;2022-11-15T14:52:26;9.57;;;6.60;;
13171;SDS011;6651;53.200;10.432;2022-11-15T14:54:53;9.82;;;6.50;;
13171;SDS011;6651;53.200;10.432;2022-11-15T14:57:19;9.07;;;6.68;;
13171;SDS011;6651;53.200;10.432;2022-11-15T14:59:45;9.25;;;6.90;;
13171;SDS011;6651;53.200;10.432;2022-11-15T15:02:18;8.35;;;6.20;;
13171;SDS011;6651;53.200;10.432;2022-11-15T15:04:44;7.25;;;6.45;;
13171;SDS011;6651;53.200;10.432;2022-11-15T15:07:10;9.52;;;7.00;;
13171;SDS011;6651;53.200;10.432;2022-11-15T15:09:36;8.20;;;6.68;;
13171;SDS011;6651;53.200;10.432;2022-11-15T15:12:03;8.43;;;6.60;;
13171;SDS011;6651;53.200;10.432;2022-11-15T15:14:29;8.50;;;6.80;;
13171;SDS011;6651;53.200;10.432;2022-11-15T15:16:55;9.77;;;6.22;;
13171;SDS011;6651;53.200;10.432;2022-11-15T15:19:21;7.38;;;6.32;;
13171;SDS011;6651;53.200;10.432;2022-11-15T15:21:47;8.50;;;6.47;;
13171;SDS011;6651;53.200;10.432;2022-11-15T15:24:13;9.25;;;6.25;;
13171;SDS011;6651;53.200;10.432;2022-11-15T15:26:40;8.55;;;6.47;;
13171;SDS011;6651;53.200;10.432;2022-11-15T15:29:08;8.13;;;6.63;;
13171;SDS011;6651;53.200;10.432;2022-11-15T15:31:34;9.35;;;7.30;;
13171;SDS011;6651;53.200;10.432;2022-11-15T15:34:00;10.10;;;8.65;;
13171;SDS011;6651;53.200;10.432;2022-11-15T15:36:26;8.75;;;7.68;;
13171;SDS011;6651;53.200;10.432;2022-11-15T15:38:52;10.05;;;7.28;;
13171;SDS011;6651;53.200;10.432;2022-11-15T15:41:18;8.50;;;6.93;;
13171;SDS011;6651;53.200;10.432;2022-11-15T15:43:44;9.52;;;7.18;;
13171;SDS011;6651;53.200;10.432;2022-11-15T15:46:11;10.30;;;7.10;;
13171;SDS011;6651;53.200;10.432;2022-11-15T15:48:37;8.35;;;6.55;;
13171;SDS011;6651;53.200;10.432;2022-11-15T15:51:04;8.38;;;6.63;;
13171;SDS011;6651;53.200;10.432;2022-11-15T15:53:31;7.95;;;6.57;;
13171;SDS011;6651;53.200;10.432;2022-11-15T15:55:57;9.57;;;7.28;;
13171;SDS011;6651;53.200;10.432;2022-11-15T15:58:23;8.70;;;6.78;;
13171;SDS011;6651;53.200;10.432;2022-11-15T16:00:49;7.68;;;6.82;;
13171;SDS011;6651;53.200;10.432;2022-11-15T16:03:15;10.05;;;7.35;;
13171;SDS011;6651;53.200;10.432;2022-11-15T16:05:41;9.38;;;7.18;;
13171;SDS011;6651;53.200;10.432;2022-11-15T16:08:40;9.80;;;7.43;;
13171;SDS011;6651;53.200;10.432;2022-11-15T16:10:59;9.18;;;7.35;;
13171;SDS011;6651;53.200;10.432;2022-11-15T16:13:28;9.57;;;7.13;;
13171;SDS011;6651;53.200;10.432;2022-11-15T16:15:54;8.30;;;7.20;;
13171;SDS011;6651;53.200;10.432;2022-11-15T16:18:20;8.85;;;7.28;;
13171;SDS011;6651;53.200;10.432;2022-11-15T16:20:47;9.43;;;7.35;;
13171;SDS011;6651;53.200;10.432;2022-11-15T16:23:21;9.80;;;7.20;;
13171;SDS011;6651;53.200;10.432;2022-11-15T16:25:53;8.20;;;7.10;;
13171;SDS011;6651;53.200;10.432;2022-11-15T16:28:24;10.82;;;7.60;;
13171;SDS011;6651;53.200;10.432;2022-11-15T16:30:58;8.95;;;7.90;;